sensor_id;sensor_type;location;lat;lon;timestamp;pressure;altitude;pressure_sealevel;temperature;humidity
10060;BME280;5069;49.306;8.636;2023-03-18T00:02:26;100036.72;;;10.58;97.79
10060;BME280;5069;49.306;8.636;2023-03-18T00:05:28;100042.91;;;10.57;97.95
10060;BME280;5069;49.306;8.636;2023-03-18T00:08:31;100046.34;;;10.59;98.08
10060;BME280;5069;49.306;8.636;2023-03-18T00:11:33;100049.09;;;10.56;97.63
10060;BME280;5069;49.306;8.636;2023-03-18T00:14:35;100053.44;;;10.57;97.58
10060;BME280;5069;49.306;8.636;2023-03-18T00:17:38;100054.56;;;10.51;98.12
10060;BME280;5069;49.306;8.636;2023-03-18T00:20:41;100062.56;;;10.48;98.28
10060;BME280;5069;49.306;8.636;2023-03-18T00:23:43;100059.09;;;10.48;98.89
10060;BME280;5069;49.306;8.636;2023-03-18T00:26:44;100061.66;;;10.49;98.85
10060;BME280;5069;49.306;8.636;2023-03-18T00:29:46;100066.19;;;10.46;98.85
10060;BME280;5069;49.306;8.636;2023-03-18T00:32:48;100060.09;;;10.44;99.10
10060;BME280;5069;49.306;8.636;2023-03-18T00:35:49;100061.88;;;10.43;99.71
10060;BME280;5069;49.306;8.636;2023-03-18T00:38:53;100071.69;;;10.40;100.00
10060;BME280;5069;49.306;8.636;2023-03-18T00:41:57;100075.25;;;10.39;99.87
10060;BME280;5069;49.306;8.636;2023-03-18T00:44:59;100075.38;;;10.35;100.00
10060;BME280;5069;49.306;8.636;2023-03-18T00:48:00;100075.47;;;10.32;99.35
10060;BME280;5069;49.306;8.636;2023-03-18T00:51:02;100082.47;;;10.33;99.36
10060;BME280;5069;49.306;8.636;2023-03-18T00:54:06;100075.47;;;10.32;100.00
10060;BME280;5069;49.306;8.636;2023-03-18T00:57:08;100075.41;;;10.34;99.21
10060;BME280;5069;49.306;8.636;2023-03-18T01:00:11;100074.50;;;10.35;99.01
10060;BME280;5069;49.306;8.636;2023-03-18T01:03:13;100077.91;;;10.37;98.95
10060;BME280;5069;49.306;8.636;2023-03-18T01:06:21;100084.19;;;10.34;99.38
10060;BME280;5069;49.306;8.636;2023-03-18T01:09:23;100078.06;;;10.34;99.54
10060;BME280;5069;49.306;8.636;2023-03-18T01:12:25;100084.22;;;10.33;100.00
10060;BME280;5069;49.306;8.636;2023-03-18T01:15:26;100065.84;;;10.31;99.87
10060;BME280;5069;49.306;8.636;2023-03-18T01:18:28;100084.19;;;10.34;99.51
10060;BME280;5069;49.306;8.636;2023-03-18T01:21:30;100070.31;;;10.29;99.83
10060;BME280;5069;49.306;8.636;2023-03-18T01:24:33;100073.97;;;10.25;100.00
10060;BME280;5069;49.306;8.636;2023-03-18T01:27:37;100087.94;;;10.27;98.90
10060;BME280;5069;49.306;8.636;2023-03-18T01:30:39;100078.41;;;10.25;99.34
10060;BME280;5069;49.306;8.636;2023-03-18T01:33:41;100074.09;;;10.22;96.30
10060;BME280;5069;49.306;8.636;2023-03-18T01:36:42;100078.44;;;10.47;91.08
10060;BME280;5069;49.306;8.636;2023-03-18T01:39:44;100077.63;;;10.45;90.58
10060;BME280;5069;49.306;8.636;2023-03-18T01:43:12;100076.91;;;10.41;90.31
10060;BME280;5069;49.306;8.636;2023-03-18T01:46:31;100078.78;;;10.38;89.47
10060;BME280;5069;49.306;8.636;2023-03-18T01:49:36;100074.38;;;10.38;90.00
10060;BME280;5069;49.306;8.636;2023-03-18T01:52:39;100076.81;;;10.43;90.60
10060;BME280;5069;49.306;8.636;2023-03-18T01:55:42;100065.47;;;10.42;89.94
10060;BME280;5069;49.306;8.636;2023-03-18T01:58:51;100071.47;;;10.46;88.15
10060;BME280;5069;49.306;8.636;2023-03-18T02:02:01;100075.13;;;10.42;88.38
10060;BME280;5069;49.306;8.636;2023-03-18T02:05:07;100062.75;;;10.44;87.58
10060;BME280;5069;49.306;8.636;2023-03-18T02:08:11;100065.78;;;10.33;88.65
10060;BME280;5069;49.306;8.636;2023-03-18T02:11:13;100063.44;;;10.25;89.58
10060;BME280;5069;49.306;8.636;2023-03-18T02:14:20;100064.50;;;10.20;90.62
10060;BME280;5069;49.306;8.636;2023-03-18T02:17:25;100062.75;;;10.20;89.79
10060;BME280;5069;49.306;8.636;2023-03-18T02:23:47;100069.75;;;10.21;90.90
10060;BME280;5069;49.306;8.636;2023-03-18T02:27:14;100068.22;;;10.14;91.54
10060;BME280;5069;49.306;8.636;2023-03-18T02:30:24;100069.16;;;10.13;91.84
10060;BME280;5069;49.306;8.636;2023-03-18T02:33:32;100080.81;;;10.06;91.67
10060;BME280;5069;49.306;8.636;2023-03-18T02:36:35;100075.59;;;10.05;91.92
10060;BME280;5069;49.306;8.636;2023-03-18T02:39:41;100083.09;;;10.17;90.41
10060;BME280;5069;49.306;8.636;2023-03-18T02:42:44;100089.56;;;10.07;90.86
10060;BME280;5069;49.306;8.636;2023-03-18T02:46:00;100095.41;;;10.15;89.06
10060;BME280;5069;49.306;8.636;2023-03-18T02:49:06;100086.78;;;10.11;89.98
10060;BME280;5069;49.306;8.636;2023-03-18T02:52:08;100083.44;;;10.06;90.68
10060;BME280;5069;49.306;8.636;2023-03-18T02:55:10;100093.84;;;10.09;89.82
10060;BME280;5069;49.306;8.636;2023-03-18T02:58:11;100095.56;;;10.10;89.18
10060;BME280;5069;49.306;8.636;2023-03-18T03:01:14;100105.16;;;10.13;88.39
10060;BME280;5069;49.306;8.636;2023-03-18T03:04:17;100098.84;;;10.18;87.51
10060;BME280;5069;49.306;8.636;2023-03-18T03:07:19;100090.84;;;10.20;87.60
10060;BME280;5069;49.306;8.636;2023-03-18T03:10:24;100092.84;;;10.13;89.34
10060;BME280;5069;49.306;8.636;2023-03-18T03:13:26;100091.31;;;10.08;89.58
10060;BME280;5069;49.306;8.636;2023-03-18T03:16:28;100088.50;;;10.12;89.05
10060;BME280;5069;49.306;8.636;2023-03-18T03:19:30;100089.34;;;10.13;88.63
10060;BME280;5069;49.306;8.636;2023-03-18T03:22:32;100084.94;;;10.13;88.24
10060;BME280;5069;49.306;8.636;2023-03-18T03:25:35;100097.19;;;10.14;88.77
10060;BME280;5069;49.306;8.636;2023-03-18T03:28:36;100098.72;;;10.21;87.56
10060;BME280;5069;49.306;8.636;2023-03-18T03:31:38;100106.56;;;10.23;87.15
10060;BME280;5069;49.306;8.636;2023-03-18T03:34:39;100109.03;;;10.27;86.69
10060;BME280;5069;49.306;8.636;2023-03-18T03:37:45;100106.34;;;10.29;86.42
10060;BME280;5069;49.306;8.636;2023-03-18T03:40:47;100106.34;;;10.29;86.87
10060;BME280;5069;49.306;8.636;2023-03-18T03:43:48;100106.56;;;10.23;87.66
10060;BME280;5069;49.306;8.636;2023-03-18T03:46:50;100109.16;;;10.24;87.85
10060;BME280;5069;49.306;8.636;2023-03-18T03:49:53;100104.63;;;10.28;87.30
10060;BME280;5069;49.306;8.636;2023-03-18T03:52:54;100103.66;;;10.30;86.93
10060;BME280;5069;49.306;8.636;2023-03-18T03:55:56;100113.22;;;10.33;86.76
10060;BME280;5069;49.306;8.636;2023-03-18T03:58:59;100108.81;;;10.33;86.14
10060;BME280;5069;49.306;8.636;2023-03-18T04:02:20;100109.63;;;10.35;86.07
10060;BME280;5069;49.306;8.636;2023-03-18T04:05:24;100111.38;;;10.35;85.84
10060;BME280;5069;49.306;8.636;2023-03-18T04:08:26;100117.28;;;10.42;84.84
10060;BME280;5069;49.306;8.636;2023-03-18T04:11:28;100116.13;;;10.49;83.74
10060;BME280;5069;49.306;8.636;2023-03-18T04:14:30;100118.53;;;10.55;82.56
10060;BME280;5069;49.306;8.636;2023-03-18T04:17:33;100123.56;;;10.61;81.98
10060;BME280;5069;49.306;8.636;2023-03-18T04:20:36;100123.94;;;10.52;83.13
10060;BME280;5069;49.306;8.636;2023-03-18T04:23:46;100118.88;;;10.46;84.14
10060;BME280;5069;49.306;8.636;2023-03-18T04:26:50;100118.97;;;10.43;84.25
10060;BME280;5069;49.306;8.636;2023-03-18T04:29:51;100118.22;;;10.41;84.20
10060;BME280;5069;49.306;8.636;2023-03-18T04:33:00;100116.44;;;10.41;84.57
10060;BME280;5069;49.306;8.636;2023-03-18T04:36:05;100118.03;;;10.45;84.01
10060;BME280;5069;49.306;8.636;2023-03-18T04:39:08;100120.53;;;10.48;83.74
10060;BME280;5069;49.306;8.636;2023-03-18T04:42:10;100118.88;;;10.46;83.56
10060;BME280;5069;49.306;8.636;2023-03-18T04:45:12;100131.03;;;10.50;83.87
10060;BME280;5069;49.306;8.636;2023-03-18T04:48:14;100124.97;;;10.48;83.76
10060;BME280;5069;49.306;8.636;2023-03-18T04:51:18;100128.44;;;10.48;83.08
10060;BME280;5069;49.306;8.636;2023-03-18T04:54:21;100124.03;;;10.49;83.01
10060;BME280;5069;49.306;8.636;2023-03-18T04:57:25;100127.84;;;10.42;83.68
10060;BME280;5069;49.306;8.636;2023-03-18T05:00:28;100120.88;;;10.39;84.34
10060;BME280;5069;49.306;8.636;2023-03-18T05:03:44;100117.44;;;10.37;84.73
10060;BME280;5069;49.306;8.636;2023-03-18T05:06:48;100125.53;;;10.32;84.84
10060;BME280;5069;49.306;8.636;2023-03-18T05:09:49;100121.16;;;10.31;84.82
10060;BME280;5069;49.306;8.636;2023-03-18T05:12:52;100128.09;;;10.34;85.06
10060;BME280;5069;49.306;8.636;2023-03-18T05:16:01;100139.47;;;10.36;85.27
10060;BME280;5069;49.306;8.636;2023-03-18T05:19:03;100131.44;;;10.39;85.05
10060;BME280;5069;49.306;8.636;2023-03-18T05:22:05;100140.19;;;10.40;84.67
10060;BME280;5069;49.306;8.636;2023-03-18T05:25:08;100142.59;;;10.46;84.40
10060;BME280;5069;49.306;8.636;2023-03-18T05:28:13;100137.38;;;10.44;84.22
10060;BME280;5069;49.306;8.636;2023-03-18T05:31:25;100140.88;;;10.45;84.41
10060;BME280;5069;49.306;8.636;2023-03-18T05:34:27;100138.25;;;10.45;84.11
10060;BME280;5069;49.306;8.636;2023-03-18T05:37:28;100137.69;;;10.37;84.73
10060;BME280;5069;49.306;8.636;2023-03-18T05:40:36;100138.59;;;10.35;85.38
10060;BME280;5069;49.306;8.636;2023-03-18T05:43:44;100138.59;;;10.35;85.67
10060;BME280;5069;49.306;8.636;2023-03-18T05:46:46;100136.91;;;10.33;86.08
10060;BME280;5069;49.306;8.636;2023-03-18T05:49:58;100142.38;;;10.28;86.60
10060;BME280;5069;49.306;8.636;2023-03-18T05:53:02;100138.22;;;10.21;87.71
10060;BME280;5069;49.306;8.636;2023-03-18T05:56:08;100142.97;;;10.10;88.31
10060;BME280;5069;49.306;8.636;2023-03-18T05:59:11;100144.81;;;10.08;89.03
10060;BME280;5069;49.306;8.636;2023-03-18T06:02:20;100147.44;;;10.08;88.97
10060;BME280;5069;49.306;8.636;2023-03-18T06:05:22;100150.94;;;10.09;89.35
10060;BME280;5069;49.306;8.636;2023-03-18T06:08:24;100146.53;;;10.09;89.98
10060;BME280;5069;49.306;8.636;2023-03-18T06:11:26;100148.25;;;10.10;89.41
10060;BME280;5069;49.306;8.636;2023-03-18T06:14:29;100146.44;;;10.12;89.70
10060;BME280;5069;49.306;8.636;2023-03-18T06:17:34;100156.84;;;10.15;88.89
10060;BME280;5069;49.306;8.636;2023-03-18T06:20:36;100151.53;;;10.18;88.77
10060;BME280;5069;49.306;8.636;2023-03-18T06:23:38;100158.16;;;10.28;88.71
10060;BME280;5069;49.306;8.636;2023-03-18T06:26:40;100152.84;;;10.30;88.94
10060;BME280;5069;49.306;8.636;2023-03-18T06:29:42;100160.53;;;10.36;88.23
10060;BME280;5069;49.306;8.636;2023-03-18T06:32:48;100159.50;;;10.40;88.13
10060;BME280;5069;49.306;8.636;2023-03-18T06:35:51;100161.06;;;10.46;88.21
10060;BME280;5069;49.306;8.636;2023-03-18T06:38:53;100159.09;;;10.51;87.68
10060;BME280;5069;49.306;8.636;2023-03-18T06:41:58;100164.25;;;10.54;88.05
10060;BME280;5069;49.306;8.636;2023-03-18T06:45:04;100164.38;;;10.51;88.11
10060;BME280;5069;49.306;8.636;2023-03-18T06:48:18;100165.94;;;10.56;87.92
10060;BME280;5069;49.306;8.636;2023-03-18T06:51:21;100172.09;;;10.55;87.80
10060;BME280;5069;49.306;8.636;2023-03-18T06:54:24;100167.59;;;10.59;87.67
10060;BME280;5069;49.306;8.636;2023-03-18T06:57:27;100165.97;;;10.55;88.58
10060;BME280;5069;49.306;8.636;2023-03-18T07:00:31;100178.25;;;10.56;88.18
10060;BME280;5069;49.306;8.636;2023-03-18T07:03:33;100180.06;;;10.54;88.28
10060;BME280;5069;49.306;8.636;2023-03-18T07:06:36;100178.38;;;10.53;88.71
10060;BME280;5069;49.306;8.636;2023-03-18T07:09:38;100181.69;;;10.58;88.19
10060;BME280;5069;49.306;8.636;2023-03-18T07:12:39;100181.47;;;10.64;87.53
10060;BME280;5069;49.306;8.636;2023-03-18T07:15:41;100194.56;;;10.65;86.37
10060;BME280;5069;49.306;8.636;2023-03-18T07:18:43;100188.91;;;10.76;85.68
10060;BME280;5069;49.306;8.636;2023-03-18T07:21:45;100189.00;;;10.96;86.29
10060;BME280;5069;49.306;8.636;2023-03-18T07:24:47;100201.44;;;11.16;84.59
10060;BME280;5069;49.306;8.636;2023-03-18T07:27:49;100202.16;;;11.19;84.45
10060;BME280;5069;49.306;8.636;2023-03-18T07:30:52;100196.41;;;11.32;83.16
10060;BME280;5069;49.306;8.636;2023-03-18T07:33:54;100205.00;;;11.37;82.37
10060;BME280;5069;49.306;8.636;2023-03-18T07:36:57;100209.16;;;11.64;79.67
10060;BME280;5069;49.306;8.636;2023-03-18T07:39:59;100210.09;;;11.85;78.73
10060;BME280;5069;49.306;8.636;2023-03-18T07:43:00;100208.28;;;12.07;76.74
10060;BME280;5069;49.306;8.636;2023-03-18T07:46:02;100210.47;;;12.18;73.70
10060;BME280;5069;49.306;8.636;2023-03-18T07:49:04;100201.06;;;12.31;71.96
10060;BME280;5069;49.306;8.636;2023-03-18T07:52:07;100205.44;;;12.52;70.44
10060;BME280;5069;49.306;8.636;2023-03-18T07:55:09;100205.47;;;12.90;67.52
10060;BME280;5069;49.306;8.636;2023-03-18T07:58:12;100200.78;;;13.15;65.58
10060;BME280;5069;49.306;8.636;2023-03-18T08:01:13;100203.50;;;13.32;62.07
10060;BME280;5069;49.306;8.636;2023-03-18T08:04:18;100201.03;;;13.46;59.25
10060;BME280;5069;49.306;8.636;2023-03-18T08:07:20;100202.00;;;13.62;57.21
10060;BME280;5069;49.306;8.636;2023-03-18T08:10:23;100199.22;;;13.83;56.37
10060;BME280;5069;49.306;8.636;2023-03-18T08:13:25;100207.94;;;13.85;55.64
10060;BME280;5069;49.306;8.636;2023-03-18T08:16:27;100211.94;;;13.93;55.45
10060;BME280;5069;49.306;8.636;2023-03-18T08:19:29;100203.28;;;14.07;54.44
10060;BME280;5069;49.306;8.636;2023-03-18T08:22:30;100215.75;;;14.22;53.69
10060;BME280;5069;49.306;8.636;2023-03-18T08:25:32;100205.94;;;14.41;53.22
10060;BME280;5069;49.306;8.636;2023-03-18T08:28:33;100204.97;;;14.60;52.40
10060;BME280;5069;49.306;8.636;2023-03-18T08:31:35;100204.81;;;14.63;52.10
10060;BME280;5069;49.306;8.636;2023-03-18T08:34:37;100207.91;;;14.71;51.88
10060;BME280;5069;49.306;8.636;2023-03-18T08:37:38;100212.28;;;14.72;51.85
10060;BME280;5069;49.306;8.636;2023-03-18T08:40:40;100211.97;;;14.78;51.55
10060;BME280;5069;49.306;8.636;2023-03-18T08:43:42;100204.78;;;14.80;51.94
10060;BME280;5069;49.306;8.636;2023-03-18T08:46:45;100210.84;;;14.82;50.72
10060;BME280;5069;49.306;8.636;2023-03-18T08:49:46;100217.31;;;15.09;49.11
10060;BME280;5069;49.306;8.636;2023-03-18T08:52:51;100211.22;;;14.92;49.52
10060;BME280;5069;49.306;8.636;2023-03-18T08:55:53;100218.69;;;15.16;49.53
10060;BME280;5069;49.306;8.636;2023-03-18T08:58:54;100211.75;;;15.29;48.62
10060;BME280;5069;49.306;8.636;2023-03-18T09:01:56;100215.13;;;15.49;48.17
10060;BME280;5069;49.306;8.636;2023-03-18T09:04:57;100210.63;;;15.49;48.03
10060;BME280;5069;49.306;8.636;2023-03-18T09:07:59;100206.88;;;15.38;48.07
10060;BME280;5069;49.306;8.636;2023-03-18T09:11:00;100207.56;;;15.57;48.48
10060;BME280;5069;49.306;8.636;2023-03-18T09:14:03;100193.41;;;15.72;46.87
10060;BME280;5069;49.306;8.636;2023-03-18T09:17:05;100199.56;;;15.73;46.40
10060;BME280;5069;49.306;8.636;2023-03-18T09:20:09;100197.53;;;15.78;46.89
10060;BME280;5069;49.306;8.636;2023-03-18T09:23:12;100196.13;;;15.86;46.54
10060;BME280;5069;49.306;8.636;2023-03-18T09:26:15;100193.75;;;16.11;47.17
10060;BME280;5069;49.306;8.636;2023-03-18T09:29:17;100186.22;;;16.18;45.21
10060;BME280;5069;49.306;8.636;2023-03-18T09:32:18;100187.13;;;16.33;44.64
10060;BME280;5069;49.306;8.636;2023-03-18T09:35:20;100171.84;;;16.36;44.76
10060;BME280;5069;49.306;8.636;2023-03-18T09:38:22;100171.00;;;16.50;45.08
10060;BME280;5069;49.306;8.636;2023-03-18T09:41:45;100171.03;;;16.64;43.23
10060;BME280;5069;49.306;8.636;2023-03-18T09:44:54;100171.97;;;16.77;43.27
10060;BME280;5069;49.306;8.636;2023-03-18T09:52:02;100159.72;;;16.89;43.59
10060;BME280;5069;49.306;8.636;2023-03-18T10:01:47;100151.25;;;17.64;41.11
10060;BME280;5069;49.306;8.636;2023-03-18T10:04:55;100153.06;;;17.23;40.74
10060;BME280;5069;49.306;8.636;2023-03-18T10:08:03;100151.97;;;16.99;41.94
10060;BME280;5069;49.306;8.636;2023-03-18T10:11:34;100149.41;;;17.11;42.25
10060;BME280;5069;49.306;8.636;2023-03-18T10:14:41;100157.66;;;17.48;42.24
10060;BME280;5069;49.306;8.636;2023-03-18T10:18:09;100152.22;;;17.63;41.98
10060;BME280;5069;49.306;8.636;2023-03-18T10:21:28;100154.06;;;17.75;42.13
10060;BME280;5069;49.306;8.636;2023-03-18T10:24:36;100149.03;;;17.71;42.19
10060;BME280;5069;49.306;8.636;2023-03-18T10:34:46;100144.41;;;18.25;40.83
10060;BME280;5069;49.306;8.636;2023-03-18T10:37:50;100134.59;;;18.13;40.59
10060;BME280;5069;49.306;8.636;2023-03-18T10:40:54;100138.66;;;18.31;41.65
10060;BME280;5069;49.306;8.636;2023-03-18T10:44:01;100139.38;;;18.08;40.81
10060;BME280;5069;49.306;8.636;2023-03-18T10:47:13;100145.03;;;18.03;41.34
10060;BME280;5069;49.306;8.636;2023-03-18T10:50:24;100152.97;;;17.78;41.25
10060;BME280;5069;49.306;8.636;2023-03-18T10:53:35;100145.94;;;17.77;41.68
10060;BME280;5069;49.306;8.636;2023-03-18T10:56:40;100149.72;;;17.87;41.85
10060;BME280;5069;49.306;8.636;2023-03-18T10:59:42;100145.91;;;18.04;42.94
10060;BME280;5069;49.306;8.636;2023-03-18T11:02:47;100146.75;;;18.30;42.28
10060;BME280;5069;49.306;8.636;2023-03-18T11:05:50;100136.31;;;17.62;41.58
10060;BME280;5069;49.306;8.636;2023-03-18T11:09:01;100140.28;;;17.42;42.35
10060;BME280;5069;49.306;8.636;2023-03-18T11:12:16;100140.69;;;17.63;42.02
10060;BME280;5069;49.306;8.636;2023-03-18T11:15:19;100134.06;;;18.08;41.05
10060;BME280;5069;49.306;8.636;2023-03-18T11:18:23;100132.75;;;18.01;41.10
10060;BME280;5069;49.306;8.636;2023-03-18T11:21:26;100134.34;;;17.91;39.89
10060;BME280;5069;49.306;8.636;2023-03-18T11:24:30;100136.59;;;17.97;39.87
10060;BME280;5069;49.306;8.636;2023-03-18T11:27:48;100138.88;;;18.15;39.49
10060;BME280;5069;49.306;8.636;2023-03-18T11:30:55;100135.66;;;18.23;39.44
10060;BME280;5069;49.306;8.636;2023-03-18T11:33:58;100127.66;;;18.48;39.85
10060;BME280;5069;49.306;8.636;2023-03-18T11:37:04;100126.38;;;18.54;40.22
10060;BME280;5069;49.306;8.636;2023-03-18T11:40:16;100124.00;;;18.87;37.20
10060;BME280;5069;49.306;8.636;2023-03-18T11:43:21;100121.66;;;18.83;37.06
10060;BME280;5069;49.306;8.636;2023-03-18T11:46:25;100124.16;;;19.10;38.79
10060;BME280;5069;49.306;8.636;2023-03-18T11:49:28;100118.69;;;19.11;37.42
10060;BME280;5069;49.306;8.636;2023-03-18T12:06:30;100098.00;;;19.73;37.63
10060;BME280;5069;49.306;8.636;2023-03-18T12:09:40;100093.16;;;19.78;37.30
10060;BME280;5069;49.306;8.636;2023-03-18T12:12:53;100107.72;;;19.74;37.43
10060;BME280;5069;49.306;8.636;2023-03-18T12:19:54;100095.16;;;19.40;36.65
10060;BME280;5069;49.306;8.636;2023-03-18T12:23:01;100091.25;;;19.57;36.85
10060;BME280;5069;49.306;8.636;2023-03-18T12:26:06;100084.25;;;19.67;36.70
10060;BME280;5069;49.306;8.636;2023-03-18T12:29:39;100079.31;;;19.50;36.53
10060;BME280;5069;49.306;8.636;2023-03-18T12:33:01;100087.69;;;19.45;36.14
10060;BME280;5069;49.306;8.636;2023-03-18T12:36:45;100088.34;;;19.12;37.14
10060;BME280;5069;49.306;8.636;2023-03-18T12:46:38;100081.66;;;19.30;37.03
10060;BME280;5069;49.306;8.636;2023-03-18T12:49:56;100081.53;;;19.56;36.63
10060;BME280;5069;49.306;8.636;2023-03-18T12:53:01;100077.19;;;19.66;36.40
10060;BME280;5069;49.306;8.636;2023-03-18T12:56:08;100073.16;;;19.60;35.61
10060;BME280;5069;49.306;8.636;2023-03-18T12:59:23;100070.72;;;19.33;35.62
10060;BME280;5069;49.306;8.636;2023-03-18T13:02:44;100071.28;;;19.50;37.07
10060;BME280;5069;49.306;8.636;2023-03-18T13:12:31;100049.91;;;20.07;34.68
10060;BME280;5069;49.306;8.636;2023-03-18T13:15:42;100057.31;;;19.81;35.87
10060;BME280;5069;49.306;8.636;2023-03-18T13:18:48;100052.22;;;20.11;35.35
10060;BME280;5069;49.306;8.636;2023-03-18T13:22:12;100060.72;;;20.05;35.91
10060;BME280;5069;49.306;8.636;2023-03-18T13:40:03;100040.56;;;20.68;35.23
10060;BME280;5069;49.306;8.636;2023-03-18T13:43:14;100043.03;;;20.49;35.26
10060;BME280;5069;49.306;8.636;2023-03-18T13:46:21;100045.44;;;20.30;35.46
10060;BME280;5069;49.306;8.636;2023-03-18T13:49:27;100044.22;;;20.22;35.32
10060;BME280;5069;49.306;8.636;2023-03-18T13:52:40;100038.00;;;20.11;35.50
10060;BME280;5069;49.306;8.636;2023-03-18T13:59:02;100029.63;;;20.27;35.18
10060;BME280;5069;49.306;8.636;2023-03-18T14:02:28;100025.19;;;20.81;34.38
10060;BME280;5069;49.306;8.636;2023-03-18T14:11:43;100036.78;;;21.14;33.76
10060;BME280;5069;49.306;8.636;2023-03-18T14:17:53;100031.13;;;21.39;33.64
10060;BME280;5069;49.306;8.636;2023-03-18T14:21:00;100027.81;;;21.15;34.30
10060;BME280;5069;49.306;8.636;2023-03-18T14:24:12;100024.50;;;20.68;34.45
10060;BME280;5069;49.306;8.636;2023-03-18T14:27:22;100025.94;;;20.28;34.85
10060;BME280;5069;49.306;8.636;2023-03-18T14:33:33;100023.34;;;20.39;34.74
10060;BME280;5069;49.306;8.636;2023-03-18T14:39:58;100018.50;;;19.75;35.20
10060;BME280;5069;49.306;8.636;2023-03-18T14:43:07;100018.88;;;19.82;35.58
10060;BME280;5069;49.306;8.636;2023-03-18T14:46:16;100023.59;;;19.78;35.79
10060;BME280;5069;49.306;8.636;2023-03-18T14:49:43;100013.28;;;19.85;36.56
10060;BME280;5069;49.306;8.636;2023-03-18T14:52:52;100009.19;;;19.92;36.35
10060;BME280;5069;49.306;8.636;2023-03-18T14:55:56;100012.81;;;19.91;35.79
10060;BME280;5069;49.306;8.636;2023-03-18T14:58:59;100005.28;;;19.96;36.14
10060;BME280;5069;49.306;8.636;2023-03-18T15:02:01;100009.41;;;20.22;34.96
10060;BME280;5069;49.306;8.636;2023-03-18T15:05:08;100001.75;;;20.29;34.77
10060;BME280;5069;49.306;8.636;2023-03-18T15:08:19;100000.41;;;20.23;34.57
10060;BME280;5069;49.306;8.636;2023-03-18T15:11:21;100002.81;;;19.82;35.07
10060;BME280;5069;49.306;8.636;2023-03-18T15:14:30;100004.31;;;19.86;34.93
10060;BME280;5069;49.306;8.636;2023-03-18T15:17:32;99997.63;;;19.92;34.70
10060;BME280;5069;49.306;8.636;2023-03-18T15:20:34;99999.63;;;19.66;34.26
10060;BME280;5069;49.306;8.636;2023-03-18T15:23:43;100004.75;;;19.58;35.35
10060;BME280;5069;49.306;8.636;2023-03-18T15:26:55;99998.19;;;19.62;34.23
10060;BME280;5069;49.306;8.636;2023-03-18T15:29:59;100000.94;;;19.49;33.75
10060;BME280;5069;49.306;8.636;2023-03-18T15:33:19;99996.81;;;19.21;34.68
10060;BME280;5069;49.306;8.636;2023-03-18T15:36:20;100001.44;;;19.19;34.91
10060;BME280;5069;49.306;8.636;2023-03-18T15:42:32;99986.25;;;19.31;34.32
10060;BME280;5069;49.306;8.636;2023-03-18T15:45:39;99987.13;;;19.31;34.52
10060;BME280;5069;49.306;8.636;2023-03-18T15:48:43;99982.91;;;19.40;34.51
10060;BME280;5069;49.306;8.636;2023-03-18T15:51:46;99981.06;;;19.64;34.00
10060;BME280;5069;49.306;8.636;2023-03-18T15:54:50;99983.09;;;19.61;33.76
10060;BME280;5069;49.306;8.636;2023-03-18T15:57:52;99979.84;;;19.91;34.36
10060;BME280;5069;49.306;8.636;2023-03-18T16:00:55;99976.09;;;19.93;34.70
10060;BME280;5069;49.306;8.636;2023-03-18T16:03:56;99974.13;;;19.84;35.53
10060;BME280;5069;49.306;8.636;2023-03-18T16:06:58;99983.47;;;19.67;35.39
10060;BME280;5069;49.306;8.636;2023-03-18T16:09:59;99974.97;;;19.62;35.34
10060;BME280;5069;49.306;8.636;2023-03-18T16:13:01;99981.84;;;19.54;34.82
10060;BME280;5069;49.306;8.636;2023-03-18T16:16:04;99983.56;;;19.55;34.74
10060;BME280;5069;49.306;8.636;2023-03-18T16:19:23;99983.38;;;19.69;34.67
10060;BME280;5069;49.306;8.636;2023-03-18T16:22:25;99987.97;;;19.67;35.49
10060;BME280;5069;49.306;8.636;2023-03-18T16:25:27;99992.50;;;19.42;35.87
10060;BME280;5069;49.306;8.636;2023-03-18T16:28:29;99987.88;;;19.10;35.84
10060;BME280;5069;49.306;8.636;2023-03-18T16:31:31;100002.44;;;19.06;36.04
10060;BME280;5069;49.306;8.636;2023-03-18T16:34:33;99999.63;;;18.96;35.75
10060;BME280;5069;49.306;8.636;2023-03-18T16:37:35;100002.09;;;18.86;36.13
10060;BME280;5069;49.306;8.636;2023-03-18T16:40:36;100009.03;;;18.65;36.87
10060;BME280;5069;49.306;8.636;2023-03-18T16:43:37;100007.75;;;18.58;36.39
10060;BME280;5069;49.306;8.636;2023-03-18T16:46:39;100013.41;;;18.53;37.05
10060;BME280;5069;49.306;8.636;2023-03-18T16:49:41;100015.91;;;18.44;37.71
10060;BME280;5069;49.306;8.636;2023-03-18T16:52:45;100015.47;;;18.37;38.51
10060;BME280;5069;49.306;8.636;2023-03-18T16:55:54;100013.25;;;18.31;38.96
10060;BME280;5069;49.306;8.636;2023-03-18T16:58:55;100022.13;;;18.19;38.79
10060;BME280;5069;49.306;8.636;2023-03-18T17:01:58;100016.69;;;18.08;39.30
10060;BME280;5069;49.306;8.636;2023-03-18T17:05:00;100030.13;;;18.06;40.03
10060;BME280;5069;49.306;8.636;2023-03-18T17:08:02;100031.75;;;17.96;40.35
10060;BME280;5069;49.306;8.636;2023-03-18T17:11:03;100039.72;;;17.84;40.65
10060;BME280;5069;49.306;8.636;2023-03-18T17:14:05;100043.22;;;17.71;41.43
10060;BME280;5069;49.306;8.636;2023-03-18T17:20:31;100041.59;;;17.56;41.82
10060;BME280;5069;49.306;8.636;2023-03-18T17:23:32;100043.72;;;17.51;42.29
10060;BME280;5069;49.306;8.636;2023-03-18T17:26:34;100047.00;;;17.42;42.07
10060;BME280;5069;49.306;8.636;2023-03-18T17:29:36;100041.88;;;17.39;42.06
10060;BME280;5069;49.306;8.636;2023-03-18T17:32:37;100046.88;;;17.31;42.84
10060;BME280;5069;49.306;8.636;2023-03-18T17:35:39;100045.03;;;17.19;43.62
10060;BME280;5069;49.306;8.636;2023-03-18T17:38:41;100035.38;;;17.04;44.13
10060;BME280;5069;49.306;8.636;2023-03-18T17:41:42;100040.34;;;16.96;44.46
10060;BME280;5069;49.306;8.636;2023-03-18T17:44:44;100043.59;;;16.86;44.87
10060;BME280;5069;49.306;8.636;2023-03-18T17:47:45;100046.66;;;16.80;45.03
10060;BME280;5069;49.306;8.636;2023-03-18T17:50:49;100051.56;;;16.74;46.21
10060;BME280;5069;49.306;8.636;2023-03-18T17:53:55;100050.13;;;16.68;45.80